createdAt,value
2017-12-26T00:00:37.650Z,3.50
2017-12-26T00:01:40.102Z,3.70
2017-12-26T00:02:42.564Z,3.60
2017-12-26T00:03:45.041Z,3.92
2017-12-26T00:04:47.504Z,5.40
2017-12-26T00:05:49.970Z,3.33
2017-12-26T00:06:52.429Z,4.15
2017-12-26T00:07:54.892Z,3.10
2017-12-26T00:08:57.369Z,2.62
2017-12-26T00:09:59.823Z,3.35
2017-12-26T00:11:02.289Z,2.78
2017-12-26T00:12:04.761Z,3.50
2017-12-26T00:13:07.221Z,3.67
2017-12-26T00:14:09.685Z,5.15
2017-12-26T00:15:12.137Z,3.22
2017-12-26T00:16:14.606Z,3.78
2017-12-26T00:17:17.069Z,4.30
2017-12-26T00:18:19.534Z,4.00
2017-12-26T00:19:21.979Z,3.50
2017-12-26T00:20:24.440Z,4.97
2017-12-26T00:21:26.992Z,4.65
2017-12-26T00:22:29.435Z,4.20
2017-12-26T00:23:31.905Z,5.10
2017-12-26T00:24:34.368Z,3.80
2017-12-26T00:25:36.810Z,4.57
2017-12-26T00:26:39.258Z,3.25
2017-12-26T00:27:41.720Z,4.50
2017-12-26T00:28:44.185Z,6.10
2017-12-26T00:29:46.630Z,4.15
2017-12-26T00:30:49.133Z,3.37
2017-12-26T00:31:51.554Z,4.60
2017-12-26T00:32:54.011Z,3.92
2017-12-26T00:33:56.488Z,5.65
2017-12-26T00:34:58.936Z,4.25
2017-12-26T00:36:01.397Z,5.07
2017-12-26T00:37:03.961Z,4.40
2017-12-26T00:38:06.425Z,4.20
2017-12-26T00:39:08.878Z,4.70
2017-12-26T00:40:11.332Z,4.47
2017-12-26T00:41:13.778Z,4.62
2017-12-26T00:42:16.243Z,7.10
2017-12-26T00:43:18.712Z,3.60
2017-12-26T00:44:21.156Z,4.80
2017-12-26T00:45:23.603Z,7.25
2017-12-26T00:46:26.065Z,6.97
2017-12-26T00:47:28.524Z,5.32
2017-12-26T00:48:31.004Z,6.90
2017-12-26T00:49:33.470Z,5.95
2017-12-26T00:50:35.930Z,5.70
2017-12-26T00:51:38.397Z,5.00
2017-12-26T00:52:40.845Z,5.00
2017-12-26T00:53:43.290Z,6.12
2017-12-26T00:54:45.768Z,5.00
2017-12-26T00:55:48.218Z,5.10
2017-12-26T00:56:50.710Z,5.00
2017-12-26T00:57:53.188Z,4.32
2017-12-26T00:58:55.653Z,4.87
2017-12-26T00:59:58.134Z,4.43
2017-12-26T01:01:00.583Z,4.07
2017-12-26T01:02:03.031Z,5.30
2017-12-26T01:03:05.474Z,5.10
2017-12-26T01:04:07.956Z,5.20
2017-12-26T01:05:10.427Z,5.37
2017-12-26T01:06:12.892Z,4.90
2017-12-26T01:07:15.342Z,4.87
2017-12-26T01:08:17.790Z,7.12
2017-12-26T01:09:20.343Z,9.57
2017-12-26T01:10:22.814Z,5.22
2017-12-26T01:11:25.258Z,4.72
2017-12-26T01:12:27.702Z,5.95
2017-12-26T01:13:30.155Z,5.70
2017-12-26T01:14:32.617Z,6.03
2017-12-26T01:15:35.104Z,5.15
2017-12-26T01:16:37.555Z,4.57
2017-12-26T01:17:40.021Z,5.85
2017-12-26T01:18:42.489Z,5.43
2017-12-26T01:19:44.948Z,5.50
2017-12-26T01:20:47.424Z,5.57
2017-12-26T01:21:49.885Z,5.85
2017-12-26T01:22:52.349Z,6.18
2017-12-26T01:23:54.812Z,3.87
2017-12-26T01:24:57.274Z,5.75
2017-12-26T01:25:59.743Z,6.85
2017-12-26T01:27:02.203Z,8.80
2017-12-26T01:28:04.664Z,5.72
2017-12-26T01:29:07.123Z,7.00
2017-12-26T01:30:09.601Z,6.10
2017-12-26T01:31:12.066Z,8.07
2017-12-26T01:32:14.533Z,7.10
2017-12-26T01:33:16.992Z,6.37
2017-12-26T01:34:19.438Z,5.72
2017-12-26T01:35:21.886Z,5.80
2017-12-26T01:36:24.368Z,7.93
2017-12-26T01:37:26.824Z,6.57
2017-12-26T01:38:29.292Z,10.77
2017-12-26T01:39:31.753Z,7.10
2017-12-26T01:40:34.202Z,6.32
2017-12-26T01:41:36.662Z,7.90
2017-12-26T01:42:39.113Z,6.78
2017-12-26T01:43:41.581Z,7.15
2017-12-26T01:44:44.034Z,8.93
2017-12-26T01:45:46.496Z,4.97
2017-12-26T01:46:49.017Z,7.07
2017-12-26T01:47:51.476Z,6.30
2017-12-26T01:48:53.940Z,5.82
2017-12-26T01:49:56.393Z,8.00
2017-12-26T01:50:58.847Z,7.75
2017-12-26T01:52:01.332Z,8.10
2017-12-26T01:53:03.780Z,14.27
2017-12-26T01:54:06.247Z,8.68
2017-12-26T01:55:08.690Z,8.15
2017-12-26T01:56:11.138Z,6.72
2017-12-26T01:57:13.621Z,5.82
2017-12-26T01:58:16.077Z,6.80
2017-12-26T01:59:18.522Z,7.37
2017-12-26T02:00:20.984Z,8.05
2017-12-26T02:01:23.449Z,10.88
2017-12-26T02:02:25.967Z,9.30
2017-12-26T02:03:29.236Z,7.35
2017-12-26T02:04:31.704Z,7.60
2017-12-26T02:05:34.173Z,13.75
2017-12-26T02:06:36.619Z,8.65
2017-12-26T02:07:39.091Z,9.00
2017-12-26T02:08:41.552Z,7.82
2017-12-26T02:09:44.007Z,7.55
2017-12-26T02:10:46.466Z,9.50
2017-12-26T02:11:48.930Z,5.85
2017-12-26T02:12:51.398Z,7.75
2017-12-26T02:13:53.841Z,8.70
2017-12-26T02:14:56.300Z,8.18
2017-12-26T02:15:58.742Z,8.80
2017-12-26T02:17:01.194Z,8.02
2017-12-26T02:18:03.669Z,7.20
2017-12-26T02:19:06.132Z,9.65
2017-12-26T02:20:08.596Z,6.40
2017-12-26T02:21:11.048Z,4.93
2017-12-26T02:22:13.490Z,5.93
2017-12-26T02:23:15.972Z,5.97
2017-12-26T02:24:18.422Z,8.00
2017-12-26T02:25:20.867Z,6.90
2017-12-26T02:26:23.327Z,10.23
2017-12-26T02:27:25.782Z,9.38
2017-12-26T02:28:28.250Z,10.75
2017-12-26T02:29:30.717Z,7.22
2017-12-26T02:30:33.205Z,12.93
2017-12-26T02:31:35.673Z,11.65
2017-12-26T02:32:38.130Z,8.57
2017-12-26T02:33:40.617Z,9.63
2017-12-26T02:34:43.081Z,10.20
2017-12-26T02:35:45.545Z,6.37
2017-12-26T02:36:48.002Z,13.88
2017-12-26T02:37:50.463Z,11.75
2017-12-26T02:38:52.943Z,11.43
2017-12-26T02:39:55.404Z,9.45
2017-12-26T02:40:57.852Z,8.88
2017-12-26T02:42:00.322Z,10.05
2017-12-26T02:43:02.774Z,12.60
2017-12-26T02:44:05.264Z,12.77
2017-12-26T02:45:07.717Z,15.30
2017-12-26T02:46:10.192Z,14.15
2017-12-26T02:47:12.639Z,7.53
2017-12-26T02:48:15.109Z,13.52
2017-12-26T02:49:17.574Z,8.65
2017-12-26T02:50:20.014Z,9.43
2017-12-26T02:51:22.488Z,14.63
2017-12-26T02:52:24.968Z,13.07
2017-12-26T02:53:27.432Z,8.30
2017-12-26T02:54:29.952Z,13.23
2017-12-26T02:55:32.406Z,9.80
2017-12-26T02:56:34.869Z,10.50
2017-12-26T02:57:37.336Z,14.50
2017-12-26T02:58:39.823Z,8.45
2017-12-26T02:59:42.293Z,11.40
2017-12-26T03:00:44.747Z,8.10
2017-12-26T03:01:47.190Z,7.55
2017-12-26T03:02:49.657Z,11.45
2017-12-26T03:03:52.122Z,9.48
2017-12-26T03:04:54.625Z,13.05
2017-12-26T03:05:57.082Z,11.88
2017-12-26T03:06:59.556Z,10.55
2017-12-26T03:08:02.025Z,6.15
2017-12-26T03:09:04.505Z,13.57
2017-12-26T03:10:06.992Z,10.38
2017-12-26T03:11:09.454Z,12.90
2017-12-26T03:12:11.920Z,11.02
2017-12-26T03:13:14.367Z,8.23
2017-12-26T03:14:16.815Z,10.73
2017-12-26T03:15:19.310Z,10.75
2017-12-26T03:16:21.762Z,11.18
2017-12-26T03:17:24.216Z,5.93
2017-12-26T03:18:26.682Z,10.45
2017-12-26T03:19:29.142Z,6.57
2017-12-26T03:20:31.614Z,12.35
2017-12-26T03:21:34.067Z,12.37
2017-12-26T03:22:36.517Z,12.37
2017-12-26T03:23:38.967Z,11.77
2017-12-26T03:24:41.428Z,9.35
2017-12-26T03:25:43.902Z,18.45
2017-12-26T03:26:46.363Z,11.10
2017-12-26T03:27:48.824Z,14.93
2017-12-26T03:28:51.297Z,16.55
2017-12-26T03:29:53.756Z,10.85
2017-12-26T03:30:56.245Z,9.75
2017-12-26T03:31:58.698Z,14.43
2017-12-26T03:33:01.168Z,10.32
2017-12-26T03:34:03.618Z,13.95
2017-12-26T03:35:06.067Z,9.90
2017-12-26T03:36:08.542Z,12.07
2017-12-26T03:37:11.001Z,13.62
2017-12-26T03:38:13.454Z,10.05
2017-12-26T03:39:15.906Z,11.90
2017-12-26T03:40:18.356Z,13.00
2017-12-26T03:41:20.844Z,12.73
2017-12-26T03:42:23.308Z,14.27
2017-12-26T03:43:25.750Z,9.85
2017-12-26T03:44:28.197Z,14.55
2017-12-26T03:45:30.657Z,9.32
2017-12-26T03:46:33.126Z,10.93
2017-12-26T03:47:35.592Z,13.98
2017-12-26T03:48:38.044Z,14.85
2017-12-26T03:49:40.504Z,9.80
2017-12-26T03:50:42.968Z,12.30
2017-12-26T03:51:45.448Z,13.13
2017-12-26T03:52:47.921Z,12.23
2017-12-26T03:53:50.366Z,10.57
2017-12-26T03:54:52.820Z,9.02
2017-12-26T03:55:55.292Z,21.08
2017-12-26T03:56:57.738Z,13.85
2017-12-26T03:58:00.195Z,7.53
2017-12-26T03:59:02.638Z,12.23
2017-12-26T04:00:05.112Z,14.32
2017-12-26T04:01:07.562Z,12.43
2017-12-26T04:02:10.044Z,14.30
2017-12-26T04:03:12.499Z,10.45
2017-12-26T04:04:14.964Z,15.43
2017-12-26T04:05:17.430Z,13.98
2017-12-26T04:06:19.878Z,8.25
2017-12-26T04:07:22.326Z,12.15
2017-12-26T04:08:24.783Z,9.48
2017-12-26T04:09:27.248Z,11.45
2017-12-26T04:10:29.704Z,11.00
2017-12-26T04:11:32.158Z,11.30
2017-12-26T04:12:34.615Z,11.93
2017-12-26T04:13:37.063Z,8.55
2017-12-26T04:14:39.514Z,12.18
2017-12-26T04:15:42.012Z,13.48
2017-12-26T04:16:44.460Z,9.63
2017-12-26T04:17:46.925Z,12.27
2017-12-26T04:18:49.393Z,13.48
2017-12-26T04:19:51.868Z,10.45
2017-12-26T04:20:54.317Z,13.77
2017-12-26T04:21:56.763Z,13.23
2017-12-26T04:22:59.297Z,6.90
2017-12-26T04:24:01.780Z,9.77
2017-12-26T04:25:04.234Z,7.72
2017-12-26T04:26:06.687Z,10.85
2017-12-26T04:27:09.153Z,12.50
2017-12-26T04:28:11.607Z,12.02
2017-12-26T04:29:14.073Z,13.50
2017-12-26T04:30:16.525Z,11.15
2017-12-26T04:31:18.975Z,13.15
2017-12-26T04:32:21.422Z,12.32
2017-12-26T04:33:23.869Z,11.15
2017-12-26T04:34:26.352Z,11.93
2017-12-26T04:35:28.806Z,9.30
2017-12-26T04:36:31.246Z,8.38
2017-12-26T04:37:33.721Z,8.40
2017-12-26T04:38:36.185Z,11.43
2017-12-26T04:39:38.635Z,11.05
2017-12-26T04:40:41.097Z,9.32
2017-12-26T04:41:43.660Z,10.50
2017-12-26T04:42:46.111Z,12.50
2017-12-26T04:43:48.556Z,7.07
2017-12-26T04:44:51.025Z,10.50
2017-12-26T04:45:53.475Z,14.07
2017-12-26T04:46:55.941Z,10.05
2017-12-26T04:47:58.395Z,13.70
2017-12-26T04:49:00.838Z,9.77
2017-12-26T04:50:03.377Z,11.10
2017-12-26T04:51:05.822Z,11.95
2017-12-26T04:52:08.266Z,8.98
2017-12-26T04:53:10.716Z,10.35
2017-12-26T04:54:13.168Z,11.55
2017-12-26T04:55:15.618Z,11.00
2017-12-26T04:56:18.066Z,10.30
2017-12-26T04:57:20.524Z,9.25
2017-12-26T04:58:22.969Z,8.10
2017-12-26T04:59:25.421Z,7.82
2017-12-26T05:00:27.886Z,10.50
2017-12-26T05:01:30.353Z,10.80
2017-12-26T05:02:32.815Z,13.70
2017-12-26T05:03:35.306Z,8.23
2017-12-26T05:04:37.768Z,11.90
2017-12-26T05:05:40.228Z,7.80
2017-12-26T05:06:42.678Z,10.80
2017-12-26T05:07:45.144Z,8.80
2017-12-26T05:08:47.630Z,6.25
2017-12-26T05:09:50.089Z,8.32
2017-12-26T05:10:52.548Z,8.93
2017-12-26T05:11:55.008Z,9.40
2017-12-26T05:12:57.472Z,7.78
2017-12-26T05:13:59.946Z,10.57
2017-12-26T05:15:02.395Z,9.30
2017-12-26T05:16:04.852Z,9.15
2017-12-26T05:17:07.301Z,7.03
2017-12-26T05:18:09.761Z,11.00
2017-12-26T05:19:12.233Z,7.80
2017-12-26T05:20:14.692Z,8.77
2017-12-26T05:21:17.153Z,9.35
2017-12-26T05:22:19.610Z,14.15
2017-12-26T05:23:22.073Z,7.75
2017-12-26T05:24:24.549Z,5.97
2017-12-26T05:25:27.020Z,7.30
2017-12-26T05:26:29.492Z,8.15
2017-12-26T05:27:31.961Z,10.23
2017-12-26T05:28:34.422Z,12.23
2017-12-26T05:29:36.894Z,6.53
2017-12-26T05:30:39.357Z,9.98
2017-12-26T05:31:41.822Z,11.30
2017-12-26T05:32:44.287Z,8.60
2017-12-26T05:33:46.730Z,6.90
2017-12-26T05:34:49.208Z,7.35
2017-12-26T05:35:51.651Z,6.18
2017-12-26T05:36:54.108Z,8.18
2017-12-26T05:37:56.568Z,6.95
2017-12-26T05:38:59.032Z,8.43
2017-12-26T05:40:01.516Z,8.75
2017-12-26T05:41:03.985Z,7.78
2017-12-26T05:42:06.434Z,8.98
2017-12-26T05:43:08.901Z,8.63
2017-12-26T05:44:11.354Z,8.98
2017-12-26T05:45:13.840Z,10.75
2017-12-26T05:46:16.306Z,7.95
2017-12-26T05:47:18.774Z,6.28
2017-12-26T05:48:21.240Z,6.43
2017-12-26T05:49:23.700Z,8.43
2017-12-26T05:50:26.188Z,8.57
2017-12-26T05:51:28.652Z,6.87
2017-12-26T05:52:31.116Z,7.32
2017-12-26T05:53:33.571Z,7.20
2017-12-26T05:54:36.019Z,7.93
2017-12-26T05:55:38.486Z,7.18
2017-12-26T05:56:40.940Z,6.62
2017-12-26T05:57:43.400Z,6.50
2017-12-26T05:58:45.886Z,7.75
2017-12-26T05:59:48.348Z,8.80
2017-12-26T06:00:50.802Z,8.50
2017-12-26T06:01:53.242Z,8.05
2017-12-26T06:02:55.683Z,9.77
2017-12-26T06:03:58.130Z,9.15
2017-12-26T06:05:00.574Z,11.45
2017-12-26T06:06:03.019Z,6.32
2017-12-26T06:07:05.484Z,9.57
2017-12-26T06:08:07.945Z,5.45
2017-12-26T06:09:10.412Z,10.40
2017-12-26T06:10:12.854Z,6.72
2017-12-26T06:11:15.302Z,7.07
2017-12-26T06:12:17.742Z,7.80
2017-12-26T06:13:20.193Z,7.37
2017-12-26T06:14:22.660Z,6.53
2017-12-26T06:15:25.179Z,9.50
2017-12-26T06:16:27.656Z,8.18
2017-12-26T06:17:30.125Z,8.38
2017-12-26T06:18:32.575Z,6.50
2017-12-26T06:19:35.048Z,6.65
2017-12-26T06:20:37.508Z,7.47
2017-12-26T06:21:40.098Z,8.43
2017-12-26T06:22:42.616Z,5.93
2017-12-26T06:23:45.213Z,8.02
2017-12-26T06:24:47.764Z,7.07
2017-12-26T06:25:50.278Z,4.43
2017-12-26T06:26:52.780Z,6.80
2017-12-26T06:27:55.290Z,6.18
2017-12-26T06:28:57.870Z,8.10
2017-12-26T06:30:00.424Z,8.55
2017-12-26T06:31:02.946Z,5.82
2017-12-26T06:32:05.484Z,6.15
2017-12-26T06:33:08.012Z,8.35
2017-12-26T06:34:10.609Z,8.10
2017-12-26T06:35:13.397Z,6.82
2017-12-26T06:36:15.904Z,7.65
2017-12-26T06:37:18.471Z,7.00
2017-12-26T06:38:21.128Z,6.65
2017-12-26T06:39:23.753Z,6.65
2017-12-26T06:40:26.257Z,4.93
2017-12-26T06:41:28.720Z,5.43
2017-12-26T06:42:31.260Z,5.03
2017-12-26T06:43:33.810Z,8.10
2017-12-26T06:44:36.352Z,5.03
2017-12-26T06:45:39.031Z,6.28
2017-12-26T06:46:42.474Z,4.35
2017-12-26T06:47:45.076Z,6.65
2017-12-26T06:48:48.136Z,6.90
2017-12-26T06:49:50.718Z,9.48
2017-12-26T06:50:53.329Z,7.72
2017-12-26T06:51:55.840Z,5.97
2017-12-26T06:52:58.553Z,8.40
2017-12-26T06:54:01.191Z,7.72
2017-12-26T06:55:03.870Z,9.32
2017-12-26T06:56:06.406Z,6.85
2017-12-26T06:57:09.055Z,8.02
2017-12-26T06:58:11.580Z,8.85
2017-12-26T06:59:14.116Z,9.68
2017-12-26T07:00:16.636Z,6.40
2017-12-26T07:01:19.113Z,9.18
2017-12-26T07:02:21.725Z,6.97
2017-12-26T07:03:24.545Z,7.43
2017-12-26T07:04:27.192Z,6.15
2017-12-26T07:05:29.784Z,8.57
2017-12-26T07:06:32.420Z,7.35
2017-12-26T07:07:34.982Z,10.55
2017-12-26T07:08:37.585Z,11.32
2017-12-26T07:09:40.196Z,7.57
2017-12-26T07:10:42.774Z,6.65
2017-12-26T07:11:45.485Z,7.60
2017-12-26T07:12:48.053Z,5.43
2017-12-26T07:13:50.643Z,5.72
2017-12-26T07:14:53.162Z,13.40
2017-12-26T07:15:55.742Z,6.20
2017-12-26T07:16:58.408Z,6.43
2017-12-26T07:18:00.961Z,6.95
2017-12-26T07:19:03.464Z,7.15
2017-12-26T07:21:58.893Z,10.40
2017-12-26T07:23:01.371Z,8.55
2017-12-26T07:24:03.890Z,16.20
2017-12-26T07:25:06.398Z,17.73
2017-12-26T07:26:08.862Z,17.80
2017-12-26T07:27:11.516Z,8.52
2017-12-26T07:28:14.217Z,12.20
2017-12-26T07:29:17.118Z,6.75
2017-12-26T07:30:19.754Z,8.15
2017-12-26T07:31:22.482Z,9.32
2017-12-26T07:32:24.992Z,7.03
2017-12-26T07:33:27.516Z,14.40
2017-12-26T07:34:30.010Z,13.75
2017-12-26T07:35:32.551Z,10.32
2017-12-26T07:36:35.063Z,14.77
2017-12-26T07:37:37.552Z,17.75
2017-12-26T07:38:40.091Z,31.58
2017-12-26T07:39:42.595Z,13.82
2017-12-26T07:40:45.140Z,10.32
2017-12-26T07:41:48.891Z,15.82
2017-12-26T07:42:51.377Z,11.55
2017-12-26T07:43:53.859Z,17.50
2017-12-26T07:44:56.438Z,8.90
2017-12-26T07:45:59.195Z,10.20
2017-12-26T07:47:01.697Z,25.02
2017-12-26T07:48:04.178Z,15.30
2017-12-26T07:49:06.645Z,10.13
2017-12-26T07:50:09.225Z,5.05
2017-12-26T07:51:11.746Z,6.32
2017-12-26T07:52:14.243Z,5.12
2017-12-26T07:53:16.705Z,7.68
2017-12-26T07:54:19.163Z,7.70
2017-12-26T07:55:21.669Z,4.90
2017-12-26T07:56:24.145Z,6.53
2017-12-26T07:57:26.603Z,4.32
2017-12-26T07:58:29.212Z,26.15
2017-12-26T07:59:31.870Z,7.12
2017-12-26T08:00:34.742Z,7.75
2017-12-26T08:01:37.307Z,18.08
2017-12-26T08:02:39.964Z,17.75
2017-12-26T08:03:42.461Z,6.07
2017-12-26T08:04:44.944Z,4.35
2017-12-26T08:05:47.441Z,6.35
2017-12-26T08:06:49.921Z,3.90
2017-12-26T08:07:52.425Z,3.53
2017-12-26T08:08:55.015Z,5.80
2017-12-26T08:09:57.515Z,4.05
2017-12-26T08:11:00.036Z,4.90
2017-12-26T08:12:02.539Z,5.43
2017-12-26T08:13:06.032Z,7.40
2017-12-26T08:14:08.572Z,4.15
2017-12-26T08:15:11.045Z,3.87
2017-12-26T08:16:13.712Z,2.70
2017-12-26T08:17:16.589Z,2.95
2017-12-26T08:18:19.111Z,2.62
2017-12-26T08:19:21.610Z,2.90
2017-12-26T08:20:24.454Z,3.20
2017-12-26T08:21:27.192Z,2.90
2017-12-26T08:22:29.833Z,3.28
2017-12-26T08:23:32.417Z,3.00
2017-12-26T08:24:34.875Z,3.72
2017-12-26T08:25:37.618Z,2.87
2017-12-26T08:26:40.201Z,2.25
2017-12-26T08:27:42.955Z,2.65
2017-12-26T08:28:45.683Z,2.30
2017-12-26T08:29:48.213Z,1.95
2017-12-26T08:30:50.954Z,2.10
2017-12-26T08:31:53.732Z,2.22
2017-12-26T08:32:56.724Z,3.10
2017-12-26T08:33:59.241Z,2.83
2017-12-26T08:35:01.956Z,3.35
2017-12-26T08:36:04.613Z,2.50
2017-12-26T08:37:07.100Z,2.80
2017-12-26T08:38:09.957Z,2.85
2017-12-26T08:39:12.483Z,3.90
2017-12-26T08:40:15.013Z,3.30
2017-12-26T08:41:17.589Z,3.67
2017-12-26T08:42:20.104Z,2.10
2017-12-26T08:43:24.707Z,1.75
2017-12-26T08:44:27.234Z,1.80
2017-12-26T08:45:29.757Z,2.15
2017-12-26T08:46:32.251Z,2.47
2017-12-26T08:47:34.811Z,2.20
2017-12-26T08:48:37.399Z,1.73
2017-12-26T08:49:40.184Z,2.50
2017-12-26T08:50:42.701Z,1.90
2017-12-26T08:51:45.201Z,1.92
2017-12-26T08:52:47.678Z,2.78
2017-12-26T08:53:50.284Z,2.37
2017-12-26T08:54:52.976Z,3.22
2017-12-26T08:55:55.555Z,2.92
2017-12-26T08:56:58.043Z,3.97
2017-12-26T08:58:00.536Z,3.45
2017-12-26T08:59:03.152Z,2.60
2017-12-26T09:00:05.716Z,2.25
2017-12-26T09:01:08.193Z,1.50
2017-12-26T09:02:10.713Z,1.70
2017-12-26T09:03:13.163Z,2.15
2017-12-26T09:04:15.639Z,1.65
2017-12-26T09:05:18.160Z,1.67
2017-12-26T09:06:20.638Z,1.62
2017-12-26T09:07:23.218Z,1.67
2017-12-26T09:08:25.726Z,2.37
2017-12-26T09:09:28.263Z,1.75
2017-12-26T09:10:30.913Z,2.40
2017-12-26T09:11:33.428Z,1.77
2017-12-26T09:12:36.450Z,2.30
2017-12-26T09:13:38.997Z,1.95
2017-12-26T09:14:41.501Z,1.80
2017-12-26T09:15:44.288Z,1.83
2017-12-26T09:16:46.813Z,1.55
2017-12-26T09:17:49.313Z,1.95
2017-12-26T09:18:52.100Z,1.50
2017-12-26T09:19:54.685Z,1.70
2017-12-26T09:20:57.249Z,1.90
2017-12-26T09:21:59.749Z,1.98
2017-12-26T09:23:02.218Z,1.58
2017-12-26T09:24:04.773Z,1.73
2017-12-26T09:25:07.268Z,1.27
2017-12-26T09:26:09.735Z,1.80
2017-12-26T09:27:12.277Z,1.60
2017-12-26T09:28:14.753Z,1.30
2017-12-26T09:29:17.525Z,2.05
2017-12-26T09:30:20.164Z,1.37
2017-12-26T09:31:22.703Z,1.73
2017-12-26T09:32:25.434Z,1.10
2017-12-26T09:33:27.896Z,1.37
2017-12-26T09:34:30.566Z,4.45
2017-12-26T09:35:33.080Z,8.05
2017-12-26T09:36:36.428Z,3.83
2017-12-26T09:37:38.895Z,1.15
2017-12-26T09:38:41.453Z,3.10
2017-12-26T09:39:44.309Z,2.35
2017-12-26T09:40:46.900Z,3.55
2017-12-26T09:41:49.377Z,3.05
2017-12-26T09:42:51.870Z,2.28
2017-12-26T09:43:54.397Z,1.58
2017-12-26T09:44:56.890Z,1.23
2017-12-26T09:45:59.479Z,2.10
2017-12-26T09:47:01.988Z,3.40
2017-12-26T09:48:04.580Z,2.20
2017-12-26T09:49:07.090Z,2.12
2017-12-26T09:50:09.741Z,1.45
2017-12-26T09:51:12.215Z,1.45
2017-12-26T09:52:15.143Z,3.90
2017-12-26T09:53:18.015Z,2.05
2017-12-26T09:54:20.633Z,12.10
2017-12-26T09:55:23.171Z,10.68
2017-12-26T09:56:25.645Z,2.53
2017-12-26T09:57:28.134Z,2.28
2017-12-26T09:58:30.583Z,2.12
2017-12-26T09:59:33.030Z,2.05
2017-12-26T10:00:35.490Z,1.58
2017-12-26T10:01:38.053Z,3.05
2017-12-26T10:02:40.576Z,2.00
2017-12-26T10:03:43.052Z,2.25
2017-12-26T10:04:45.529Z,1.30
2017-12-26T10:05:47.990Z,1.02
2017-12-26T10:06:50.733Z,1.10
2017-12-26T10:07:53.213Z,1.70
2017-12-26T10:08:55.723Z,1.50
2017-12-26T10:09:58.171Z,2.00
2017-12-26T10:11:00.693Z,1.40
2017-12-26T10:12:03.247Z,2.05
2017-12-26T10:13:05.743Z,3.08
2017-12-26T10:14:08.265Z,3.15
2017-12-26T10:15:10.718Z,2.80
2017-12-26T10:16:13.228Z,2.28
2017-12-26T10:17:15.708Z,3.47
2017-12-26T10:18:18.271Z,3.65
2017-12-26T10:19:20.726Z,5.60
2017-12-26T10:20:23.243Z,1.60
2017-12-26T10:21:25.698Z,3.03
2017-12-26T10:22:28.372Z,2.30
2017-12-26T10:23:30.889Z,1.60
2017-12-26T10:24:33.352Z,1.77
2017-12-26T10:25:35.850Z,1.30
2017-12-26T10:26:38.294Z,2.50
2017-12-26T10:27:40.769Z,2.58
2017-12-26T10:28:43.428Z,2.90
2017-12-26T10:29:45.918Z,1.80
2017-12-26T10:30:48.437Z,2.15
2017-12-26T10:31:50.886Z,2.45
2017-12-26T10:32:53.781Z,2.33
2017-12-26T10:33:56.228Z,2.62
2017-12-26T10:34:58.894Z,2.37
2017-12-26T10:36:01.857Z,1.80
2017-12-26T10:37:04.319Z,0.95
2017-12-26T10:38:06.812Z,1.70
2017-12-26T10:39:09.420Z,1.45
2017-12-26T10:40:12.257Z,2.03
2017-12-26T10:41:15.015Z,1.55
2017-12-26T10:42:17.639Z,6.60
2017-12-26T10:43:20.256Z,1.67
2017-12-26T10:44:22.822Z,1.95
2017-12-26T10:45:25.398Z,1.85
2017-12-26T10:46:28.021Z,1.52
2017-12-26T10:47:30.515Z,1.37
2017-12-26T10:48:33.352Z,1.48
2017-12-26T10:49:35.872Z,1.12
2017-12-26T10:50:38.346Z,1.52
2017-12-26T10:51:40.841Z,1.90
2017-12-26T10:52:43.317Z,1.42
2017-12-26T10:53:46.568Z,1.90
2017-12-26T10:54:49.467Z,1.30
2017-12-26T10:55:52.080Z,2.10
2017-12-26T10:56:54.739Z,1.65
2017-12-26T10:57:57.451Z,1.77
2017-12-26T10:59:00.251Z,1.73
2017-12-26T11:00:02.869Z,1.75
2017-12-26T11:01:05.425Z,1.20
2017-12-26T11:02:08.025Z,4.40
2017-12-26T11:03:10.593Z,3.60
2017-12-26T11:04:13.369Z,1.00
2017-12-26T11:05:15.847Z,1.48
2017-12-26T11:06:18.559Z,2.30
2017-12-26T11:07:21.304Z,2.15
2017-12-26T11:08:23.827Z,3.80
2017-12-26T11:09:26.342Z,2.80
2017-12-26T11:10:28.822Z,1.92
2017-12-26T11:11:31.311Z,2.00
2017-12-26T11:12:33.800Z,2.97
2017-12-26T11:13:36.385Z,1.40
2017-12-26T11:14:38.893Z,2.28
2017-12-26T11:15:41.459Z,2.12
2017-12-26T11:16:44.060Z,4.12
2017-12-26T11:17:46.631Z,7.20
2017-12-26T11:18:49.164Z,2.22
2017-12-26T11:19:51.620Z,4.87
2017-12-26T11:20:54.273Z,2.05
2017-12-26T11:21:56.880Z,4.53
2017-12-26T11:23:00.079Z,6.30
2017-12-26T11:24:03.126Z,4.50
2017-12-26T11:25:05.655Z,4.47
2017-12-26T11:26:08.209Z,14.87
2017-12-26T11:27:10.747Z,5.15
2017-12-26T11:28:13.474Z,9.73
2017-12-26T11:29:15.981Z,5.97
2017-12-26T11:30:18.586Z,3.50
2017-12-26T11:31:21.206Z,9.77
2017-12-26T11:32:23.829Z,2.37
2017-12-26T11:33:26.408Z,1.55
2017-12-26T11:34:29.030Z,4.45
2017-12-26T11:35:31.555Z,5.22
2017-12-26T11:36:34.351Z,1.95
2017-12-26T11:37:36.926Z,3.30
2017-12-26T11:38:39.576Z,2.28
2017-12-26T11:39:42.227Z,3.45
2017-12-26T11:40:44.714Z,2.58
2017-12-26T11:41:47.381Z,6.28
2017-12-26T11:42:49.940Z,2.87
2017-12-26T11:43:52.446Z,4.10
2017-12-26T11:44:55.100Z,2.15
2017-12-26T11:45:57.823Z,5.53
2017-12-26T11:47:00.357Z,2.95
2017-12-26T11:48:02.919Z,4.87
2017-12-26T11:49:05.471Z,5.70
2017-12-26T11:50:08.200Z,1.90
2017-12-26T11:51:10.701Z,3.60
2017-12-26T11:52:13.252Z,3.45
2017-12-26T11:53:15.960Z,2.10
2017-12-26T11:54:19.032Z,2.30
2017-12-26T11:55:21.690Z,2.90
2017-12-26T11:56:24.239Z,2.35
2017-12-26T11:57:26.736Z,2.92
2017-12-26T11:58:29.261Z,2.10
2017-12-26T11:59:31.863Z,2.17
2017-12-26T12:00:36.185Z,2.42
2017-12-26T12:01:38.756Z,4.82
2017-12-26T12:02:41.250Z,2.03
2017-12-26T12:03:43.993Z,1.85
2017-12-26T12:04:46.577Z,2.15
2017-12-26T12:05:49.131Z,1.55
2017-12-26T12:06:51.684Z,1.92
2017-12-26T12:07:54.354Z,1.80
2017-12-26T12:08:57.692Z,2.75
2017-12-26T12:10:02.752Z,5.22
2017-12-26T12:11:05.426Z,1.73
2017-12-26T12:12:07.951Z,6.97
2017-12-26T12:13:10.556Z,1.60
2017-12-26T12:14:13.155Z,2.37
2017-12-26T12:15:15.704Z,1.17
2017-12-26T12:16:18.187Z,4.15
2017-12-26T12:17:20.704Z,1.95
2017-12-26T12:18:23.352Z,1.50
2017-12-26T12:19:26.024Z,2.30
2017-12-26T12:20:28.845Z,3.90
2017-12-26T12:21:31.397Z,1.20
2017-12-26T12:22:34.017Z,2.85
2017-12-26T12:23:36.800Z,6.60
2017-12-26T12:24:39.308Z,1.20
2017-12-26T12:25:41.906Z,4.75
2017-12-26T12:26:44.376Z,3.45
2017-12-26T12:27:46.900Z,1.42
2017-12-26T12:28:49.355Z,3.90
2017-12-26T12:29:52.049Z,4.72
2017-12-26T12:30:54.869Z,2.12
2017-12-26T12:31:58.913Z,4.80
2017-12-26T12:33:02.487Z,1.50
2017-12-26T12:34:05.001Z,2.25
2017-12-26T12:35:07.510Z,1.58
2017-12-26T12:36:10.146Z,1.00
2017-12-26T12:37:12.876Z,7.37
2017-12-26T12:38:15.879Z,4.00
2017-12-26T12:39:18.526Z,5.70
2017-12-26T12:40:21.429Z,1.30
2017-12-26T12:41:26.728Z,1.48
2017-12-26T12:42:29.201Z,2.30
2017-12-26T12:43:31.837Z,1.80
2017-12-26T12:44:34.562Z,1.33
2017-12-26T12:45:37.219Z,2.45
2017-12-26T12:46:39.719Z,1.83
2017-12-26T12:47:44.473Z,1.25
2017-12-26T12:48:47.846Z,1.00
2017-12-26T12:49:50.429Z,5.45
2017-12-26T12:50:52.913Z,5.93
2017-12-26T12:51:55.384Z,1.67
2017-12-26T12:52:57.922Z,1.50
2017-12-26T12:54:00.562Z,7.25
2017-12-26T12:55:03.224Z,2.58
2017-12-26T12:56:05.795Z,2.35
2017-12-26T12:57:08.355Z,2.10
2017-12-26T12:58:10.936Z,4.60
2017-12-26T12:59:13.720Z,2.20
2017-12-26T13:00:16.351Z,1.42
2017-12-26T13:01:18.931Z,4.30
2017-12-26T13:02:21.517Z,1.65
2017-12-26T13:03:24.350Z,1.37
2017-12-26T13:04:27.052Z,2.08
2017-12-26T13:05:29.603Z,4.50
2017-12-26T13:06:32.157Z,3.55
2017-12-26T13:07:34.910Z,28.50
2017-12-26T13:08:37.456Z,10.73
2017-12-26T13:09:40.092Z,4.30
2017-12-26T13:10:42.785Z,2.62
2017-12-26T13:11:45.480Z,1.90
2017-12-26T13:12:48.010Z,1.20
2017-12-26T13:13:50.855Z,1.60
2017-12-26T13:14:53.401Z,1.70
2017-12-26T13:15:55.864Z,1.60
2017-12-26T13:17:01.239Z,0.98
2017-12-26T13:18:03.812Z,1.58
2017-12-26T13:19:06.308Z,1.77
2017-12-26T13:20:09.009Z,2.40
2017-12-26T13:21:11.605Z,1.45
2017-12-26T13:22:14.313Z,1.45
2017-12-26T13:23:16.936Z,2.20
2017-12-26T13:24:19.412Z,3.83
2017-12-26T13:25:22.153Z,1.77
2017-12-26T13:26:24.723Z,2.10
2017-12-26T13:27:27.326Z,5.70
2017-12-26T13:28:29.991Z,1.80
2017-12-26T13:29:32.475Z,1.80
2017-12-26T13:30:35.005Z,2.05
2017-12-26T13:31:37.455Z,1.48
2017-12-26T13:32:39.962Z,2.75
2017-12-26T13:33:42.477Z,1.20
2017-12-26T13:34:45.085Z,1.92
2017-12-26T13:35:47.830Z,2.10
2017-12-26T13:36:50.566Z,2.40
2017-12-26T13:37:53.090Z,4.32
2017-12-26T13:38:55.568Z,1.70
2017-12-26T13:39:58.054Z,2.00
2017-12-26T13:41:00.604Z,0.95
2017-12-26T13:42:03.081Z,2.33
2017-12-26T13:43:05.528Z,1.20
2017-12-26T13:44:07.975Z,6.37
2017-12-26T13:45:10.440Z,3.75
2017-12-26T13:46:12.882Z,2.40
2017-12-26T13:47:15.326Z,4.93
2017-12-26T13:48:17.778Z,1.67
2017-12-26T13:49:20.240Z,2.37